sensor_id;sensor_type;location;lat;lon;timestamp;pressure;altitude;pressure_sealevel;temperature;humidity
59240;BME280;45010;53.640;10.578;2023-04-27T00:01:31;101188.78;;;24.96;31.21
59240;BME280;45010;53.640;10.578;2023-04-27T00:04:32;101185.50;;;24.94;31.25
59240;BME280;45010;53.640;10.578;2023-04-27T00:07:32;101187.13;;;24.95;31.27
59240;BME280;45010;53.640;10.578;2023-04-27T00:10:33;101177.78;;;24.85;31.38
59240;BME280;45010;53.640;10.578;2023-04-27T00:13:33;101189.22;;;24.93;31.13
59240;BME280;45010;53.640;10.578;2023-04-27T00:16:34;101192.91;;;24.92;31.38
59240;BME280;45010;53.640;10.578;2023-04-27T00:19:34;101193.97;;;24.91;31.32
59240;BME280;45010;53.640;10.578;2023-04-27T00:22:34;101188.63;;;24.91;31.53
59240;BME280;45010;53.640;10.578;2023-04-27T00:25:35;101194.97;;;24.90;31.26
59240;BME280;45010;53.640;10.578;2023-04-27T00:28:36;101187.22;;;24.88;31.31
59240;BME280;45010;53.640;10.578;2023-04-27T00:31:36;101185.59;;;24.87;31.40
59240;BME280;45010;53.640;10.578;2023-04-27T00:34:37;101184.75;;;24.87;31.35
59240;BME280;45010;53.640;10.578;2023-04-27T00:37:37;101188.47;;;24.85;31.28
59240;BME280;45010;53.640;10.578;2023-04-27T00:40:38;101169.59;;;24.80;31.35
59240;BME280;45010;53.640;10.578;2023-04-27T00:43:42;101155.38;;;24.68;31.33
59240;BME280;45010;53.640;10.578;2023-04-27T00:46:43;101192.38;;;24.83;31.33
59240;BME280;45010;53.640;10.578;2023-04-27T00:49:44;101195.06;;;24.83;31.43
59240;BME280;45010;53.640;10.578;2023-04-27T00:52:44;101167.28;;;24.65;31.44
59240;BME280;45010;53.640;10.578;2023-04-27T00:55:46;101174.19;;;24.73;31.43
59240;BME280;45010;53.640;10.578;2023-04-27T00:58:46;101189.94;;;24.81;31.41
59240;BME280;45010;53.640;10.578;2023-04-27T01:01:46;101181.16;;;24.74;31.30
59240;BME280;45010;53.640;10.578;2023-04-27T01:04:48;101182.19;;;24.73;31.53
59240;BME280;45010;53.640;10.578;2023-04-27T01:07:52;101183.16;;;24.79;31.47
59240;BME280;45010;53.640;10.578;2023-04-27T01:10:52;101193.03;;;24.78;31.31
59240;BME280;45010;53.640;10.578;2023-04-27T01:13:53;101194.88;;;24.78;31.39
59240;BME280;45010;53.640;10.578;2023-04-27T01:16:56;101192.41;;;24.76;31.45
59240;BME280;45010;53.640;10.578;2023-04-27T01:19:56;101193.47;;;24.75;31.17
59240;BME280;45010;53.640;10.578;2023-04-27T01:22:57;101195.16;;;24.69;31.24
59240;BME280;45010;53.640;10.578;2023-04-27T01:25:57;101201.66;;;24.74;31.40
59240;BME280;45010;53.640;10.578;2023-04-27T01:28:59;101201.66;;;24.74;31.42
59240;BME280;45010;53.640;10.578;2023-04-27T01:31:59;101206.22;;;24.73;31.43
59240;BME280;45010;53.640;10.578;2023-04-27T01:35:00;101209.91;;;24.72;31.37
59240;BME280;45010;53.640;10.578;2023-04-27T01:38:00;101196.84;;;24.64;31.37
59240;BME280;45010;53.640;10.578;2023-04-27T01:41:04;101210.34;;;24.69;31.29
59240;BME280;45010;53.640;10.578;2023-04-27T01:44:06;101210.34;;;24.69;31.46
59240;BME280;45010;53.640;10.578;2023-04-27T01:47:06;101214.06;;;24.68;31.41
59240;BME280;45010;53.640;10.578;2023-04-27T01:50:07;101207.09;;;24.67;31.53
59240;BME280;45010;53.640;10.578;2023-04-27T01:53:07;101217.75;;;24.67;31.56
59240;BME280;45010;53.640;10.578;2023-04-27T01:56:08;101207.97;;;24.61;31.41
59240;BME280;45010;53.640;10.578;2023-04-27T01:59:09;101222.47;;;24.65;31.37
59240;BME280;45010;53.640;10.578;2023-04-27T02:02:09;101209.22;;;24.58;31.25
59240;BME280;45010;53.640;10.578;2023-04-27T02:05:09;101216.56;;;24.63;31.36
59240;BME280;45010;53.640;10.578;2023-04-27T02:08:10;101217.38;;;24.63;31.30
59240;BME280;45010;53.640;10.578;2023-04-27T02:11:10;101230.09;;;24.61;31.31
59240;BME280;45010;53.640;10.578;2023-04-27T02:14:10;101229.31;;;24.61;31.31
59240;BME280;45010;53.640;10.578;2023-04-27T02:17:11;101243.69;;;24.60;31.33
59240;BME280;45010;53.640;10.578;2023-04-27T02:20:11;101250.03;;;24.58;31.36
59240;BME280;45010;53.640;10.578;2023-04-27T02:23:12;101245.72;;;24.57;31.52
59240;BME280;45010;53.640;10.578;2023-04-27T02:26:18;101241.25;;;24.51;31.40
59240;BME280;45010;53.640;10.578;2023-04-27T02:29:19;101243.28;;;24.56;31.74
59240;BME280;45010;53.640;10.578;2023-04-27T02:32:21;101234.72;;;24.47;31.34
59240;BME280;45010;53.640;10.578;2023-04-27T02:35:21;101251.50;;;24.54;31.33
59240;BME280;45010;53.640;10.578;2023-04-27T02:38:21;101245.56;;;24.52;31.47
59240;BME280;45010;53.640;10.578;2023-04-27T02:41:22;101217.38;;;24.38;31.54
59240;BME280;45010;53.640;10.578;2023-04-27T02:44:23;101234.72;;;24.47;31.58
59240;BME280;45010;53.640;10.578;2023-04-27T02:47:23;101250.31;;;24.50;31.54
59240;BME280;45010;53.640;10.578;2023-04-27T02:50:24;101244.97;;;24.50;31.59
59240;BME280;45010;53.640;10.578;2023-04-27T02:53:24;101244.16;;;24.50;31.47
59240;BME280;45010;53.640;10.578;2023-04-27T02:56:24;101247.06;;;24.48;31.61
59240;BME280;45010;53.640;10.578;2023-04-27T02:59:25;101247.25;;;24.47;31.45
59240;BME280;45010;53.640;10.578;2023-04-27T03:02:25;101250.72;;;24.47;31.37
59240;BME280;45010;53.640;10.578;2023-04-27T03:05:25;101248.72;;;24.42;31.51
59240;BME280;45010;53.640;10.578;2023-04-27T03:08:27;101249.34;;;24.44;31.63
59240;BME280;45010;53.640;10.578;2023-04-27T03:11:28;101236.22;;;24.43;31.38
59240;BME280;45010;53.640;10.578;2023-04-27T03:14:28;101231.75;;;24.37;31.55
59240;BME280;45010;53.640;10.578;2023-04-27T03:17:29;101244.63;;;24.40;31.48
59240;BME280;45010;53.640;10.578;2023-04-27T03:20:29;101233.22;;;24.33;31.56
59240;BME280;45010;53.640;10.578;2023-04-27T03:23:29;101247.50;;;24.38;31.53
59240;BME280;45010;53.640;10.578;2023-04-27T03:26:30;101251.22;;;24.37;31.59
59240;BME280;45010;53.640;10.578;2023-04-27T03:29:30;101246.72;;;24.38;31.52
59240;BME280;45010;53.640;10.578;2023-04-27T03:32:31;101250.41;;;24.37;31.52
59240;BME280;45010;53.640;10.578;2023-04-27T03:35:31;101248.78;;;24.36;31.38
59240;BME280;45010;53.640;10.578;2023-04-27T03:38:32;101225.91;;;24.21;31.60
59240;BME280;45010;53.640;10.578;2023-04-27T03:41:32;101245.50;;;24.34;31.54
59240;BME280;45010;53.640;10.578;2023-04-27T03:44:32;101261.50;;;24.34;31.36
59240;BME280;45010;53.640;10.578;2023-04-27T03:47:35;101258.25;;;24.31;31.95
59240;BME280;45010;53.640;10.578;2023-04-27T03:50:35;101269.69;;;24.32;31.46
59240;BME280;45010;53.640;10.578;2023-04-27T03:53:36;101258.66;;;24.28;31.61
59240;BME280;45010;53.640;10.578;2023-04-27T03:56:36;101267.28;;;24.30;31.63
59240;BME280;45010;53.640;10.578;2023-04-27T03:59:37;101261.94;;;24.30;31.51
59240;BME280;45010;53.640;10.578;2023-04-27T04:02:37;101263.97;;;24.28;31.65
59240;BME280;45010;53.640;10.578;2023-04-27T04:05:38;101254.56;;;24.26;31.35
59240;BME280;45010;53.640;10.578;2023-04-27T04:08:38;101258.06;;;24.26;31.71
59240;BME280;45010;53.640;10.578;2023-04-27T04:11:38;101253.59;;;24.20;31.18
59240;BME280;45010;53.640;10.578;2023-04-27T04:14:38;101268.94;;;24.25;31.16
59240;BME280;45010;53.640;10.578;2023-04-27T04:17:39;101265.47;;;24.24;31.51
59240;BME280;45010;53.640;10.578;2023-04-27T04:20:39;101265.47;;;24.24;31.67
59240;BME280;45010;53.640;10.578;2023-04-27T04:23:40;101272.44;;;24.25;31.49
59240;BME280;45010;53.640;10.578;2023-04-27T04:26:40;101275.09;;;24.25;31.51
59240;BME280;45010;53.640;10.578;2023-04-27T04:29:40;101270.56;;;24.26;31.81
59240;BME280;45010;53.640;10.578;2023-04-27T04:32:40;101270.81;;;24.24;31.64
59240;BME280;45010;53.640;10.578;2023-04-27T04:35:41;101277.75;;;24.25;31.54
59240;BME280;45010;53.640;10.578;2023-04-27T04:38:42;101279.59;;;24.25;31.87
59240;BME280;45010;53.640;10.578;2023-04-27T04:41:42;101282.47;;;24.23;31.91
59240;BME280;45010;53.640;10.578;2023-04-27T04:44:42;101285.75;;;24.25;31.52
59240;BME280;45010;53.640;10.578;2023-04-27T04:47:43;101286.78;;;24.24;31.99
59240;BME280;45010;53.640;10.578;2023-04-27T04:50:44;101291.09;;;24.25;31.56
59240;BME280;45010;53.640;10.578;2023-04-27T04:53:44;101294.78;;;24.24;31.88
59240;BME280;45010;53.640;10.578;2023-04-27T04:56:44;101292.34;;;24.23;32.16
59240;BME280;45010;53.640;10.578;2023-04-27T04:59:45;101300.91;;;24.25;31.80
59240;BME280;45010;53.640;10.578;2023-04-27T05:02:45;101296.41;;;24.25;32.01
59240;BME280;45010;53.640;10.578;2023-04-27T05:05:47;101299.09;;;24.25;32.38
59240;BME280;45010;53.640;10.578;2023-04-27T05:08:47;101298.88;;;24.27;32.37
59240;BME280;45010;53.640;10.578;2023-04-27T05:11:47;101305.84;;;24.28;32.88
59240;BME280;45010;53.640;10.578;2023-04-27T05:14:47;101308.28;;;24.29;32.67
59240;BME280;45010;53.640;10.578;2023-04-27T05:17:48;101311.56;;;24.31;33.09
59240;BME280;45010;53.640;10.578;2023-04-27T05:20:48;101317.47;;;24.34;33.07
59240;BME280;45010;53.640;10.578;2023-04-27T05:23:48;101318.09;;;24.36;32.56
59240;BME280;45010;53.640;10.578;2023-04-27T05:26:49;101312.31;;;24.39;33.29
59240;BME280;45010;53.640;10.578;2023-04-27T05:29:49;101317.22;;;24.42;33.37
59240;BME280;45010;53.640;10.578;2023-04-27T05:32:49;101310.69;;;24.38;32.96
59240;BME280;45010;53.640;10.578;2023-04-27T05:35:50;101317.63;;;24.45;32.92
59240;BME280;45010;53.640;10.578;2023-04-27T05:38:50;101315.53;;;24.48;32.86
59240;BME280;45010;53.640;10.578;2023-04-27T05:41:51;101316.97;;;24.50;32.72
59240;BME280;45010;53.640;10.578;2023-04-27T05:44:53;101312.22;;;24.52;32.68
59240;BME280;45010;53.640;10.578;2023-04-27T05:47:53;101320.84;;;24.54;33.08
59240;BME280;45010;53.640;10.578;2023-04-27T05:51:00;101317.56;;;24.52;32.72
59240;BME280;45010;53.640;10.578;2023-04-27T05:54:00;101322.63;;;24.61;32.81
59240;BME280;45010;53.640;10.578;2023-04-27T05:57:01;101317.91;;;24.63;32.59
59240;BME280;45010;53.640;10.578;2023-04-27T06:00:02;101313.81;;;24.60;32.37
59240;BME280;45010;53.640;10.578;2023-04-27T06:03:08;101322.38;;;24.69;32.35
59240;BME280;45010;53.640;10.578;2023-04-27T06:06:08;101324.00;;;24.70;32.24
59240;BME280;45010;53.640;10.578;2023-04-27T06:09:08;101323.56;;;24.73;32.32
59240;BME280;45010;53.640;10.578;2023-04-27T06:12:09;101326.25;;;24.73;32.13
59240;BME280;45010;53.640;10.578;2023-04-27T06:15:09;101325.19;;;24.74;32.04
59240;BME280;45010;53.640;10.578;2023-04-27T06:18:10;101327.66;;;24.76;31.94
59240;BME280;45010;53.640;10.578;2023-04-27T06:21:10;101339.13;;;24.76;31.93
59240;BME280;45010;53.640;10.578;2023-04-27T06:24:11;101339.13;;;24.76;31.90
59240;BME280;45010;53.640;10.578;2023-04-27T06:27:11;101332.16;;;24.75;31.90
59240;BME280;45010;53.640;10.578;2023-04-27T06:30:12;101329.28;;;24.77;31.69
59240;BME280;45010;53.640;10.578;2023-04-27T06:33:12;101330.09;;;24.77;31.71
59240;BME280;45010;53.640;10.578;2023-04-27T06:36:12;101337.88;;;24.79;31.68
59240;BME280;45010;53.640;10.578;2023-04-27T06:39:13;101335.22;;;24.79;31.70
59240;BME280;45010;53.640;10.578;2023-04-27T06:42:13;101337.06;;;24.78;31.75
59240;BME280;45010;53.640;10.578;2023-04-27T06:45:14;101338.72;;;24.79;31.71
59240;BME280;45010;53.640;10.578;2023-04-27T06:48:14;101323.22;;;24.63;31.90
59240;BME280;45010;53.640;10.578;2023-04-27T06:51:15;101346.91;;;24.78;31.69
59240;BME280;45010;53.640;10.578;2023-04-27T06:54:16;101311.34;;;24.58;31.90
59240;BME280;45010;53.640;10.578;2023-04-27T06:57:16;101341.22;;;24.74;31.84
59240;BME280;45010;53.640;10.578;2023-04-27T07:00:17;101342.25;;;24.73;31.59
59240;BME280;45010;53.640;10.578;2023-04-27T07:03:17;101338.81;;;24.66;31.95
59240;BME280;45010;53.640;10.578;2023-04-27T07:06:18;101340.63;;;24.72;31.82
59240;BME280;45010;53.640;10.578;2023-04-27T07:09:18;101341.63;;;24.71;31.68
59240;BME280;45010;53.640;10.578;2023-04-27T07:12:19;101346.38;;;24.69;31.89
59240;BME280;45010;53.640;10.578;2023-04-27T07:15:20;101331.22;;;24.63;31.90
59240;BME280;45010;53.640;10.578;2023-04-27T07:18:20;101353.78;;;24.67;31.90
59240;BME280;45010;53.640;10.578;2023-04-27T07:21:21;101352.94;;;24.66;32.10
59240;BME280;45010;53.640;10.578;2023-04-27T07:24:21;101351.53;;;24.64;31.77
59240;BME280;45010;53.640;10.578;2023-04-27T07:27:21;101353.16;;;24.65;31.89
59240;BME280;45010;53.640;10.578;2023-04-27T07:30:22;101353.97;;;24.65;31.96
59240;BME280;45010;53.640;10.578;2023-04-27T07:33:22;101349.69;;;24.64;31.77
59240;BME280;45010;53.640;10.578;2023-04-27T07:36:23;101354.19;;;24.64;31.79
59240;BME280;45010;53.640;10.578;2023-04-27T07:39:23;101372.88;;;24.64;32.11
59240;BME280;45010;53.640;10.578;2023-04-27T07:42:24;101378.00;;;24.65;31.98
59240;BME280;45010;53.640;10.578;2023-04-27T07:45:24;101380.66;;;24.65;32.21
59240;BME280;45010;53.640;10.578;2023-04-27T07:48:30;101392.16;;;24.66;32.43
59240;BME280;45010;53.640;10.578;2023-04-27T07:51:31;101379.03;;;24.64;32.38
59240;BME280;45010;53.640;10.578;2023-04-27T07:54:33;101379.81;;;24.65;32.56
59240;BME280;45010;53.640;10.578;2023-04-27T07:57:34;101382.72;;;24.63;32.44
59240;BME280;45010;53.640;10.578;2023-04-27T08:00:34;101387.81;;;24.65;32.67
59240;BME280;45010;53.640;10.578;2023-04-27T08:03:34;101390.06;;;24.68;32.77
59240;BME280;45010;53.640;10.578;2023-04-27T08:06:35;101389.03;;;24.69;32.77
59240;BME280;45010;53.640;10.578;2023-04-27T08:09:35;101388.00;;;24.70;32.74
59240;BME280;45010;53.640;10.578;2023-04-27T08:12:36;101385.97;;;24.72;32.69
59240;BME280;45010;53.640;10.578;2023-04-27T08:15:36;101379.59;;;24.73;32.67
59240;BME280;45010;53.640;10.578;2023-04-27T08:18:36;101385.50;;;24.75;32.60
59240;BME280;45010;53.640;10.578;2023-04-27T08:21:37;101360.56;;;24.63;32.57
59240;BME280;45010;53.640;10.578;2023-04-27T08:24:37;101379.34;;;24.75;32.61
59240;BME280;45010;53.640;10.578;2023-04-27T08:27:38;101374.84;;;24.75;32.50
59240;BME280;45010;53.640;10.578;2023-04-27T08:30:41;101387.13;;;24.83;32.51
59240;BME280;45010;53.640;10.578;2023-04-27T08:33:41;101378.69;;;24.86;32.20
59240;BME280;45010;53.640;10.578;2023-04-27T08:36:41;101367.81;;;24.88;32.42
59240;BME280;45010;53.640;10.578;2023-04-27T08:39:42;101367.38;;;24.91;32.52
59240;BME280;45010;53.640;10.578;2023-04-27T08:42:57;101367.97;;;24.93;32.37
59240;BME280;45010;53.640;10.578;2023-04-27T08:45:57;101370.22;;;24.96;32.33
59240;BME280;45010;53.640;10.578;2023-04-27T08:48:58;101369.78;;;24.99;32.36
59240;BME280;45010;53.640;10.578;2023-04-27T08:51:58;101362.34;;;25.01;32.22
59240;BME280;45010;53.640;10.578;2023-04-27T08:54:58;101352.88;;;25.05;32.11
59240;BME280;45010;53.640;10.578;2023-04-27T08:57:59;101356.13;;;25.07;32.01
59240;BME280;45010;53.640;10.578;2023-04-27T09:01:04;101333.28;;;24.93;32.25
59240;BME280;45010;53.640;10.578;2023-04-27T09:04:05;101355.72;;;25.10;31.90
59240;BME280;45010;53.640;10.578;2023-04-27T09:07:11;101346.28;;;25.08;32.21
59240;BME280;45010;53.640;10.578;2023-04-27T09:10:11;101362.84;;;25.17;31.93
59240;BME280;45010;53.640;10.578;2023-04-27T09:13:12;101340.28;;;25.12;32.05
59240;BME280;45010;53.640;10.578;2023-04-27T09:16:12;101354.16;;;25.21;31.96
59240;BME280;45010;53.640;10.578;2023-04-27T09:19:23;101341.28;;;25.18;31.96
59240;BME280;45010;53.640;10.578;2023-04-27T09:22:23;101352.50;;;25.27;31.91
59240;BME280;45010;53.640;10.578;2023-04-27T09:25:25;101333.47;;;25.17;31.77
59240;BME280;45010;53.640;10.578;2023-04-27T09:28:27;101345.75;;;25.24;31.73
59240;BME280;45010;53.640;10.578;2023-04-27T09:31:32;101351.00;;;25.31;31.70
59240;BME280;45010;53.640;10.578;2023-04-27T09:34:39;101350.78;;;25.33;31.55
59240;BME280;45010;53.640;10.578;2023-04-27T09:37:40;101355.91;;;25.34;31.74
59240;BME280;45010;53.640;10.578;2023-04-27T09:40:41;101346.84;;;25.35;31.45
59240;BME280;45010;53.640;10.578;2023-04-27T09:43:42;101332.97;;;25.27;31.39
59240;BME280;45010;53.640;10.578;2023-04-27T09:46:44;101335.75;;;25.38;31.58
59240;BME280;45010;53.640;10.578;2023-04-27T09:49:46;101340.63;;;25.42;31.62
59240;BME280;45010;53.640;10.578;2023-04-27T09:52:49;101331.56;;;25.43;31.57
59240;BME280;45010;53.640;10.578;2023-04-27T09:56:09;101343.88;;;25.44;31.48
59240;BME280;45010;53.640;10.578;2023-04-27T09:59:35;101336.47;;;25.46;31.59
59240;BME280;45010;53.640;10.578;2023-04-27T10:03:20;101331.16;;;25.46;31.43
59240;BME280;45010;53.640;10.578;2023-04-27T10:06:50;101331.94;;;25.46;31.70
59240;BME280;45010;53.640;10.578;2023-04-27T10:09:51;101296.44;;;25.27;31.36
59240;BME280;45010;53.640;10.578;2023-04-27T10:12:56;101329.50;;;25.45;31.41
59240;BME280;45010;53.640;10.578;2023-04-27T10:16:14;101325.81;;;25.46;31.36
59240;BME280;45010;53.640;10.578;2023-04-27T10:19:15;101318.38;;;25.48;31.53
59240;BME280;45010;53.640;10.578;2023-04-27T10:22:15;101337.84;;;25.55;31.44
59240;BME280;45010;53.640;10.578;2023-04-27T10:25:20;101317.88;;;25.58;31.40
59240;BME280;45010;53.640;10.578;2023-04-27T10:28:21;101338.00;;;25.60;31.22
59240;BME280;45010;53.640;10.578;2023-04-27T10:31:27;101324.41;;;25.62;31.24
59240;BME280;45010;53.640;10.578;2023-04-27T10:34:28;101321.53;;;25.63;31.41
59240;BME280;45010;53.640;10.578;2023-04-27T10:37:42;101339.19;;;25.64;31.09
59240;BME280;45010;53.640;10.578;2023-04-27T10:40:44;101349.88;;;25.64;31.28
59240;BME280;45010;53.640;10.578;2023-04-27T10:43:45;101346.16;;;25.65;31.22
59240;BME280;45010;53.640;10.578;2023-04-27T10:46:50;101348.59;;;25.67;30.99
59240;BME280;45010;53.640;10.578;2023-04-27T10:49:53;101345.72;;;25.69;31.28
59240;BME280;45010;53.640;10.578;2023-04-27T10:52:59;101328.50;;;25.64;31.25
59240;BME280;45010;53.640;10.578;2023-04-27T10:56:01;101356.78;;;25.72;31.28
59240;BME280;45010;53.640;10.578;2023-04-27T10:59:02;101345.94;;;25.67;31.14
59240;BME280;45010;53.640;10.578;2023-04-27T11:02:03;101359.19;;;25.74;30.95
59240;BME280;45010;53.640;10.578;2023-04-27T11:05:03;101350.16;;;25.75;31.15
59240;BME280;45010;53.640;10.578;2023-04-27T11:08:16;101350.16;;;25.75;31.13
59240;BME280;45010;53.640;10.578;2023-04-27T11:11:17;101351.78;;;25.76;31.06
59240;BME280;45010;53.640;10.578;2023-04-27T11:14:20;101358.75;;;25.77;31.11
59240;BME280;45010;53.640;10.578;2023-04-27T11:17:31;101348.06;;;25.77;31.22
59240;BME280;45010;53.640;10.578;2023-04-27T11:20:31;101354.84;;;25.79;31.10
59240;BME280;45010;53.640;10.578;2023-04-27T11:23:32;101319.91;;;25.62;30.97
59240;BME280;45010;53.640;10.578;2023-04-27T11:26:38;101350.91;;;25.82;31.00
59240;BME280;45010;53.640;10.578;2023-04-27T11:29:39;101309.22;;;25.62;31.09
59240;BME280;45010;53.640;10.578;2023-04-27T11:32:40;101342.66;;;25.84;31.35
59240;BME280;45010;53.640;10.578;2023-04-27T11:35:41;101350.69;;;25.84;30.69
59240;BME280;45010;53.640;10.578;2023-04-27T11:38:42;101340.78;;;25.84;30.92
59240;BME280;45010;53.640;10.578;2023-04-27T11:41:43;101343.09;;;25.81;30.86
59240;BME280;45010;53.640;10.578;2023-04-27T11:47:59;101359.50;;;25.84;30.80
59240;BME280;45010;53.640;10.578;2023-04-27T11:50:59;101359.50;;;25.84;30.95
59240;BME280;45010;53.640;10.578;2023-04-27T11:54:04;101361.13;;;25.85;30.71
59240;BME280;45010;53.640;10.578;2023-04-27T11:57:06;101354.84;;;25.79;30.73
59240;BME280;45010;53.640;10.578;2023-04-27T12:00:07;101364.84;;;25.84;30.35
59240;BME280;45010;53.640;10.578;2023-04-27T12:03:13;101364.84;;;25.84;30.48
59240;BME280;45010;53.640;10.578;2023-04-27T12:06:13;101364.03;;;25.84;30.49
59240;BME280;45010;53.640;10.578;2023-04-27T12:09:14;101364.84;;;25.84;30.21
59240;BME280;45010;53.640;10.578;2023-04-27T12:12:16;101373.91;;;25.83;30.34
59240;BME280;45010;53.640;10.578;2023-04-27T12:15:21;101373.06;;;25.83;30.72
59240;BME280;45010;53.640;10.578;2023-04-27T12:18:21;101372.28;;;25.82;30.57
59240;BME280;45010;53.640;10.578;2023-04-27T12:21:21;101383.75;;;25.83;30.73
59240;BME280;45010;53.640;10.578;2023-04-27T12:24:22;101368.19;;;25.79;30.96
59240;BME280;45010;53.640;10.578;2023-04-27T12:27:22;101373.44;;;25.86;31.17
59240;BME280;45010;53.640;10.578;2023-04-27T12:30:23;101375.88;;;25.88;31.13
59240;BME280;45010;53.640;10.578;2023-04-27T12:33:23;101380.44;;;25.87;31.06
59240;BME280;45010;53.640;10.578;2023-04-27T12:36:23;101369.75;;;25.87;31.33
59240;BME280;45010;53.640;10.578;2023-04-27T12:39:25;101354.63;;;25.81;31.25
59240;BME280;45010;53.640;10.578;2023-04-27T12:42:26;101365.66;;;25.85;31.09
59240;BME280;45010;53.640;10.578;2023-04-27T12:45:26;101384.53;;;25.90;31.29
59240;BME280;45010;53.640;10.578;2023-04-27T12:48:27;101373.84;;;25.90;31.30
59240;BME280;45010;53.640;10.578;2023-04-27T12:51:27;101383.47;;;25.91;31.49
59240;BME280;45010;53.640;10.578;2023-04-27T12:54:27;101384.28;;;25.91;31.31
59240;BME280;45010;53.640;10.578;2023-04-27T12:57:28;101388.59;;;25.92;31.18
59240;BME280;45010;53.640;10.578;2023-04-27T13:00:28;101397.63;;;25.91;31.27
59240;BME280;45010;53.640;10.578;2023-04-27T13:03:29;101397.63;;;25.91;31.26
59240;BME280;45010;53.640;10.578;2023-04-27T13:06:30;101393.13;;;25.92;31.36
59240;BME280;45010;53.640;10.578;2023-04-27T13:09:31;101391.13;;;25.87;31.32
59240;BME280;45010;53.640;10.578;2023-04-27T13:12:31;101401.97;;;25.92;31.15
59240;BME280;45010;53.640;10.578;2023-04-27T13:15:31;101382.97;;;25.82;30.97
59240;BME280;45010;53.640;10.578;2023-04-27T13:18:32;101398.25;;;25.94;31.26
59240;BME280;45010;53.640;10.578;2023-04-27T13:21:32;101395.56;;;25.94;31.71
59240;BME280;45010;53.640;10.578;2023-04-27T13:24:32;101391.03;;;25.94;31.17
59240;BME280;45010;53.640;10.578;2023-04-27T13:27:33;101394.53;;;25.95;31.04
59240;BME280;45010;53.640;10.578;2023-04-27T13:30:33;101369.50;;;25.89;31.13
59240;BME280;45010;53.640;10.578;2023-04-27T13:33:39;101388.97;;;25.96;31.05
59240;BME280;45010;53.640;10.578;2023-04-27T13:36:40;101388.16;;;25.96;30.84
59240;BME280;45010;53.640;10.578;2023-04-27T13:39:41;101382.78;;;25.96;31.04
59240;BME280;45010;53.640;10.578;2023-04-27T13:42:41;101400.47;;;25.97;31.29
59240;BME280;45010;53.640;10.578;2023-04-27T13:45:41;101393.47;;;25.96;31.08
59240;BME280;45010;53.640;10.578;2023-04-27T13:48:42;101393.47;;;25.96;31.10
59240;BME280;45010;53.640;10.578;2023-04-27T13:51:42;101395.13;;;25.97;31.08
59240;BME280;45010;53.640;10.578;2023-04-27T13:54:43;101400.47;;;25.97;31.21
59240;BME280;45010;53.640;10.578;2023-04-27T13:57:43;101316.75;;;25.47;31.35
59240;BME280;45010;53.640;10.578;2023-04-27T14:00:43;101395.94;;;25.97;30.78
59240;BME280;45010;53.640;10.578;2023-04-27T14:03:46;101382.78;;;25.96;30.79
59240;BME280;45010;53.640;10.578;2023-04-27T14:06:47;101381.16;;;25.95;30.81
59240;BME280;45010;53.640;10.578;2023-04-27T14:09:48;101379.53;;;25.94;30.92
59240;BME280;45010;53.640;10.578;2023-04-27T14:12:48;101383.25;;;25.92;30.80
59240;BME280;45010;53.640;10.578;2023-04-27T14:15:49;101381.59;;;25.91;30.95
59240;BME280;45010;53.640;10.578;2023-04-27T14:18:49;101376.25;;;25.91;31.10
59240;BME280;45010;53.640;10.578;2023-04-27T14:21:51;101377.91;;;25.92;30.71
59240;BME280;45010;53.640;10.578;2023-04-27T14:24:51;101376.88;;;25.94;30.93
59240;BME280;45010;53.640;10.578;2023-04-27T14:27:51;101373.38;;;25.93;31.18
59240;BME280;45010;53.640;10.578;2023-04-27T14:30:52;101372.56;;;25.92;31.04
59240;BME280;45010;53.640;10.578;2023-04-27T14:33:52;101372.56;;;25.92;31.05
59240;BME280;45010;53.640;10.578;2023-04-27T14:36:52;101368.84;;;25.94;31.31
59240;BME280;45010;53.640;10.578;2023-04-27T14:39:53;101363.50;;;25.94;31.02
59240;BME280;45010;53.640;10.578;2023-04-27T14:42:53;101370.47;;;25.95;30.92
59240;BME280;45010;53.640;10.578;2023-04-27T14:45:53;101370.47;;;25.95;30.97
59240;BME280;45010;53.640;10.578;2023-04-27T14:48:54;101369.66;;;25.94;30.90
59240;BME280;45010;53.640;10.578;2023-04-27T14:51:54;101370.47;;;25.95;31.12
59240;BME280;45010;53.640;10.578;2023-04-27T14:54:54;101365.13;;;25.95;30.95
59240;BME280;45010;53.640;10.578;2023-04-27T14:57:55;101367.59;;;25.96;31.34
59240;BME280;45010;53.640;10.578;2023-04-27T15:00:55;101367.59;;;25.96;31.38
59240;BME280;45010;53.640;10.578;2023-04-27T15:03:55;101364.66;;;25.98;31.34
59240;BME280;45010;53.640;10.578;2023-04-27T15:06:56;101345.44;;;25.89;31.26
59240;BME280;45010;53.640;10.578;2023-04-27T15:09:57;101363.03;;;25.97;31.64
59240;BME280;45010;53.640;10.578;2023-04-27T15:12:57;101356.66;;;25.98;31.27
59240;BME280;45010;53.640;10.578;2023-04-27T15:15:58;101349.53;;;25.91;31.42
59240;BME280;45010;53.640;10.578;2023-04-27T15:18:59;101352.56;;;25.95;31.37
59240;BME280;45010;53.640;10.578;2023-04-27T15:22:00;101349.09;;;25.95;31.62
59240;BME280;45010;53.640;10.578;2023-04-27T15:25:00;101349.09;;;25.95;31.93
59240;BME280;45010;53.640;10.578;2023-04-27T15:28:00;101349.91;;;25.95;31.62
59240;BME280;45010;53.640;10.578;2023-04-27T15:31:02;101345.38;;;25.96;31.75
59240;BME280;45010;53.640;10.578;2023-04-27T15:34:02;101345.38;;;25.96;31.96
59240;BME280;45010;53.640;10.578;2023-04-27T15:37:03;101341.09;;;25.95;31.92
59240;BME280;45010;53.640;10.578;2023-04-27T15:40:04;101316.38;;;25.81;31.61